Kamikita Maru — JD4176 — position and weather

sailwx.info

Track history (hours):
 
Tides and Currents Weather Stations Pressure Air Temp Water Temp Dewpoint Dewpoint Depression Visibility Wind Speed Wind Dir Waves Ship Positions

Kamikita Maru

Last reported at 2018-Feb-18 20:10 UTC. Time now 2018-Feb-19 02:26 UTC.
Position N 41°58' E 141°29'.

Length 170 m; draft 6.7 m.

Type: Cargo ship. MMSI: 431009595.

Date/timePositionNaut miles runAvg speedWind from/ knotsBaromVisibWave heightAir tempDewpointWater temp
2018-Feb-18 20:10N 41°58' E 141°29'519.2
2018-Feb-18 19:56N 41°54' E 141°29'920.3
2018-Feb-18 19:30N 41°45' E 141°28'1020.3
2018-Feb-18 19:00N 41°35' E 141°31'1019.3
2018-Feb-18 18:30N 41°25' E 141°32'1119.7
2018-Feb-18 17:57N 41°15' E 141°32'1019.5
2018-Feb-18 17:28N 41°05' E 141°34'37413.8
2018-Feb-17 14:19N 34°57' E 140°15'618.9
2018-Feb-17 14:00N 34°55' E 140°08'1218.8
2018-Feb-17 13:21N 34°51' E 139°54'818.8
2018-Feb-17 12:55N 34°54' E 139°45'819.3
2018-Feb-17 12:30N 35°02' E 139°42'918.3
2018-Feb-17 12:00N 35°10' E 139°45'713.7
2018-Feb-17 11:31N 35°17' E 139°45'815.4
2018-Feb-17 11:01N 35°24' E 139°43'1019.1
2018-Feb-17 10:31N 35°31' E 139°51'713.9
2018-Feb-17 10:00N 35°37' E 139°46'1 2.5
2018-Feb-17 09:30N 35°38' E 139°46'0 0.1
2018-Feb-17 09:00N 35°38' E 139°46'0 0.0
2018-Feb-17 08:05N 35°38' E 139°46'0 0.0
2018-Feb-17 07:59N 35°38' E 139°46'0 0.1
2018-Feb-17 07:29N 35°38' E 139°46'0 0.1
2018-Feb-17 06:38N 35°38' E 139°46'0 0.0
2018-Feb-17 06:29N 35°38' E 139°46'0 0.1
2018-Feb-17 05:59N 35°38' E 139°46'0 0.0
2018-Feb-17 05:29N 35°38' E 139°46'0 0.1
2018-Feb-17 04:53N 35°38' E 139°46'0 0.0
2018-Feb-17 04:30N 35°38' E 139°46'510.9
2018-Feb-17 04:00N 35°34' E 139°50'713.7
2018-Feb-17 03:30N 35°27' E 139°49'713.2
2018-Feb-17 03:01N 35°21' E 139°45'611.9
2018-Feb-17 02:30N 35°16' E 139°47'714.7
2018-Feb-17 02:00N 35°08' E 139°46'1019.4
2018-Feb-17 01:30N 35°01' E 139°38'1321.2
2018-Feb-17 00:54N 34°53' E 139°25'821.7
2018-Feb-17 00:30N 34°47' E 139°18'1223.0
2018-Feb-17 00:00N 34°38' E 139°09'1122.2
2018-Feb-16 23:31N 34°31' E 138°59'1521.8
2018-Feb-16 22:49N 34°24' E 138°42'722.1
2018-Feb-16 22:29N 34°22' E 138°34'1021.6
2018-Feb-16 22:00N 34°18' E 138°22'15520.2
2018-Feb-16 14:21N 33°30' E 135°25'1220.7
2018-Feb-16 13:45N 33°37' E 135°13'521.0
2018-Feb-16 13:30N 33°41' E 135°08'1020.1
2018-Feb-16 13:01N 33°49' E 135°02'1020.2
2018-Feb-16 12:31N 33°59' E 134°59'1121.1
2018-Feb-16 12:00N 34°09' E 134°59'1020.5
2018-Feb-16 11:30N 34°20' E 134°59'1020.0
2018-Feb-16 11:01N 34°27' E 135°07'1019.5
2018-Feb-16 10:31N 34°33' E 135°17'713.6
2018-Feb-16 10:01N 34°36' E 135°24'1 1.7
2018-Feb-16 09:28N 34°37' E 135°25'0 0.0
2018-Feb-16 08:58N 34°37' E 135°25'0 0.0
2018-Feb-16 08:28N 34°37' E 135°25'0 0.0
2018-Feb-16 07:58N 34°37' E 135°25'0 0.0
2018-Feb-16 07:25N 34°37' E 135°25'0 0.0
2018-Feb-16 06:55N 34°37' E 135°25'0 0.0
2018-Feb-16 06:28N 34°37' E 135°25'0 0.0
2018-Feb-16 05:59N 34°37' E 135°25'0 0.0
2018-Feb-16 05:29N 34°37' E 135°25'0 0.0
2018-Feb-16 04:53N 34°37' E 135°25'0 0.0
2018-Feb-16 04:29N 34°37' E 135°25'0 0.0
2018-Feb-16 03:59N 34°37' E 135°25'0 0.0
2018-Feb-16 03:29N 34°37' E 135°25'0 0.0
2018-Feb-16 02:59N 34°37' E 135°25'0 0.0
2018-Feb-16 02:29N 34°37' E 135°25'0 0.0
2018-Feb-16 01:59N 34°37' E 135°25'0 0.0
2018-Feb-16 01:29N 34°37' E 135°25'0 0.0
2018-Feb-16 00:59N 34°37' E 135°25'0 0.0
2018-Feb-16 00:30N 34°37' E 135°25'4 7.4
2018-Feb-16 00:00N 34°36' E 135°20'713.8
2018-Feb-15 23:30N 34°31' E 135°14'714.9
2018-Feb-15 23:01N 34°26' E 135°08'918.5
2018-Feb-15 22:31N 34°19' E 135°01'918.1
2018-Feb-15 22:01N 34°10' E 135°00'918.1
2018-Feb-15 21:31N 34°01' E 135°01'917.9
2018-Feb-15 21:00N 33°52' E 135°00'918.1
2018-Feb-15 20:30N 33°44' E 135°06'1218.1
2018-Feb-15 19:49N 33°35' E 135°17'5616.3
2018-Feb-15 16:22N 33°44' E 136°23'8718.0
2018-Feb-15 11:32N 34°21' E 137°58'417.8
2018-Feb-15 11:17N 34°22' E 138°04'1117.8
2018-Feb-15 10:41N 34°24' E 138°16'517.3
2018-Feb-15 10:24N 34°26' E 138°22'717.4
2018-Feb-15 10:00N 34°28' E 138°30'917.2
2018-Feb-15 09:30N 34°30' E 138°40'816.9
2018-Feb-15 09:00N 34°32' E 138°50'817.0
2018-Feb-15 08:30N 34°34' E 139°00'916.9
2018-Feb-15 07:58N 34°41' E 139°07'917.4
2018-Feb-15 07:29N 34°48' E 139°14'816.6
2018-Feb-15 07:00N 34°53' E 139°20'817.1
2018-Feb-15 06:30N 34°59' E 139°28'917.9
2018-Feb-15 06:01N 35°04' E 139°37'918.3
2018-Feb-15 05:31N 35°10' E 139°45'612.5
2018-Feb-15 05:00N 35°17' E 139°45'713.5
2018-Feb-15 04:30N 35°23' E 139°42'918.6
2018-Feb-15 04:01N 35°29' E 139°51'713.9
2018-Feb-15 03:31N 35°35' E 139°47'3 4.9
2018-Feb-15 02:58N 35°38' E 139°46'0 0.0
2018-Feb-15 02:30N 35°38' E 139°46'0 0.0
2018-Feb-15 01:55N 35°38' E 139°46'0 0.0
2018-Feb-15 01:25N 35°38' E 139°46'0 0.0
2018-Feb-15 00:55N 35°38' E 139°46'0 0.0
2018-Feb-15 00:25N 35°38' E 139°46'0 0.0
2018-Feb-14 23:43N 35°38' E 139°46'0 0.0
2018-Feb-14 22:46N 35°38' E 139°46'0 0.0
2018-Feb-14 22:25N 35°38' E 139°46'0 0.0
2018-Feb-14 21:44N 35°38' E 139°46'0 0.5
2018-Feb-14 21:30N 35°38' E 139°46'510.5
2018-Feb-14 21:00N 35°34' E 139°50'714.0
2018-Feb-14 20:30N 35°27' E 139°49'713.7
2018-Feb-14 20:00N 35°21' E 139°45'612.0
2018-Feb-14 19:31N 35°15' E 139°47'713.9
2018-Feb-14 19:00N 35°08' E 139°47'713.7
2018-Feb-14 18:31N 35°02' E 139°44'814.9
2018-Feb-14 18:00N 34°54' E 139°45'1416.1
2018-Feb-14 17:07N 34°54' E 140°03'418.2
2018-Feb-14 16:53N 34°56' E 140°08'1418.1
2018-Feb-14 16:08N 35°03' E 140°22'  
2018-Feb-11 19:36N 41°53' E 141°33'416.5
2018-Feb-11 19:21N 41°49' E 141°33'716.3
2018-Feb-11 18:54N 41°42' E 141°33'716.5
2018-Feb-11 18:30N 41°35' E 141°33'816.9
2018-Feb-11 18:00N 41°27' E 141°32'1017.8
2018-Feb-11 17:27N 41°17' E 141°32'917.3
2018-Feb-11 16:56N 41°08' E 141°31'817.3
2018-Feb-11 16:30N 41°01' E 141°31'36314.3
2018-Feb-10 15:06N 35°01' E 140°25'820.1
2018-Feb-10 14:41N 34°57' E 140°16'420.3
2018-Feb-10 14:29N 34°56' E 140°11'1020.2
2018-Feb-10 13:59N 34°53' E 139°60'1019.0
2018-Feb-10 13:27N 34°53' E 139°48'817.7
2018-Feb-10 13:00N 34°60' E 139°43'919.0
2018-Feb-10 12:30N 35°09' E 139°45'713.6
2018-Feb-10 12:00N 35°15' E 139°46'612.8
2018-Feb-10 11:31N 35°21' E 139°42'917.3
2018-Feb-10 11:01N 35°28' E 139°49'713.1
2018-Feb-10 10:31N 35°34' E 139°48'4 8.4
2018-Feb-10 10:00N 35°38' E 139°46'0 0.0
2018-Feb-10 04:48N 35°38' E 139°46'0 0.6
2018-Feb-10 04:28N 35°38' E 139°46'511.3
2018-Feb-10 04:00N 35°34' E 139°50'714.2
2018-Feb-10 03:30N 35°27' E 139°49'713.6
2018-Feb-10 03:00N 35°21' E 139°45'612.2
2018-Feb-10 02:30N 35°15' E 139°47'713.8
2018-Feb-10 02:00N 35°08' E 139°47'817.1
2018-Feb-10 01:31N 35°02' E 139°40'1018.5
2018-Feb-10 00:58N 34°55' E 139°30'919.6
2018-Feb-10 00:30N 34°50' E 139°21'1019.3
2018-Feb-09 23:59N 34°43' E 139°13'1019.8
2018-Feb-09 23:31N 34°35' E 139°06'1020.0
2018-Feb-09 23:01N 34°30' E 138°56'519.8
2018-Feb-09 22:46N 34°29' E 138°50'19218.7
2018-Feb-09 12:31N 33°48' E 135°04'2020.2
2018-Feb-09 11:30N 34°07' E 134°58'1121.6
2018-Feb-09 11:01N 34°18' E 134°58'2120.6
2018-Feb-09 10:01N 34°33' E 135°16'8 5.5
2018-Feb-09 08:30N 34°37' E 135°25'0 0.0
2018-Feb-09 00:30N 34°37' E 135°25'3212.9
2018-Feb-08 22:00N 34°13' E 134°59'918.2
2018-Feb-08 21:30N 34°03' E 134°59'918.0
2018-Feb-08 21:00N 33°54' E 134°59'  
Track history (hours):
 
Tides and Currents Weather Stations Pressure Air Temp Water Temp Dewpoint Dewpoint Depression Visibility Wind Speed Wind Dir Waves Ship Positions

Kamikita Maru

Last reported at 2018-Feb-18 20:10 UTC. Time now 2018-Feb-19 02:26 UTC.
Position N 41°58' E 141°29'.

Length 170 m; draft 6.7 m.

Type: Cargo ship. MMSI: 431009595.

Date/timePositionNaut miles runAvg speedWind from/ knotsBaromVisibWave heightAir tempDewpointWater temp
2018-Feb-18 20:10N 41°58' E 141°29'519.2
2018-Feb-18 19:56N 41°54' E 141°29'920.3
2018-Feb-18 19:30N 41°45' E 141°28'1020.3
2018-Feb-18 19:00N 41°35' E 141°31'1019.3
2018-Feb-18 18:30N 41°25' E 141°32'1119.7
2018-Feb-18 17:57N 41°15' E 141°32'1019.5
2018-Feb-18 17:28N 41°05' E 141°34'37413.8
2018-Feb-17 14:19N 34°57' E 140°15'618.9
2018-Feb-17 14:00N 34°55' E 140°08'1218.8
2018-Feb-17 13:21N 34°51' E 139°54'818.8
2018-Feb-17 12:55N 34°54' E 139°45'819.3
2018-Feb-17 12:30N 35°02' E 139°42'918.3
2018-Feb-17 12:00N 35°10' E 139°45'713.7
2018-Feb-17 11:31N 35°17' E 139°45'815.4
2018-Feb-17 11:01N 35°24' E 139°43'1019.1
2018-Feb-17 10:31N 35°31' E 139°51'713.9
2018-Feb-17 10:00N 35°37' E 139°46'1 2.5
2018-Feb-17 09:30N 35°38' E 139°46'0 0.1
2018-Feb-17 09:00N 35°38' E 139°46'0 0.0
2018-Feb-17 08:05N 35°38' E 139°46'0 0.0
2018-Feb-17 07:59N 35°38' E 139°46'0 0.1
2018-Feb-17 07:29N 35°38' E 139°46'0 0.1
2018-Feb-17 06:38N 35°38' E 139°46'0 0.0
2018-Feb-17 06:29N 35°38' E 139°46'0 0.1
2018-Feb-17 05:59N 35°38' E 139°46'0 0.0
2018-Feb-17 05:29N 35°38' E 139°46'0 0.1
2018-Feb-17 04:53N 35°38' E 139°46'0 0.0
2018-Feb-17 04:30N 35°38' E 139°46'510.9
2018-Feb-17 04:00N 35°34' E 139°50'713.7
2018-Feb-17 03:30N 35°27' E 139°49'713.2
2018-Feb-17 03:01N 35°21' E 139°45'611.9
2018-Feb-17 02:30N 35°16' E 139°47'714.7
2018-Feb-17 02:00N 35°08' E 139°46'1019.4
2018-Feb-17 01:30N 35°01' E 139°38'1321.2
2018-Feb-17 00:54N 34°53' E 139°25'821.7
2018-Feb-17 00:30N 34°47' E 139°18'1223.0
2018-Feb-17 00:00N 34°38' E 139°09'1122.2
2018-Feb-16 23:31N 34°31' E 138°59'1521.8
2018-Feb-16 22:49N 34°24' E 138°42'722.1
2018-Feb-16 22:29N 34°22' E 138°34'1021.6
2018-Feb-16 22:00N 34°18' E 138°22'15520.2
2018-Feb-16 14:21N 33°30' E 135°25'1220.7
2018-Feb-16 13:45N 33°37' E 135°13'521.0
2018-Feb-16 13:30N 33°41' E 135°08'1020.1
2018-Feb-16 13:01N 33°49' E 135°02'1020.2
2018-Feb-16 12:31N 33°59' E 134°59'1121.1
2018-Feb-16 12:00N 34°09' E 134°59'1020.5
2018-Feb-16 11:30N 34°20' E 134°59'1020.0
2018-Feb-16 11:01N 34°27' E 135°07'1019.5
2018-Feb-16 10:31N 34°33' E 135°17'713.6
2018-Feb-16 10:01N 34°36' E 135°24'1 1.7
2018-Feb-16 09:28N 34°37' E 135°25'0 0.0
2018-Feb-16 08:58N 34°37' E 135°25'0 0.0
2018-Feb-16 08:28N 34°37' E 135°25'0 0.0
2018-Feb-16 07:58N 34°37' E 135°25'0 0.0
2018-Feb-16 07:25N 34°37' E 135°25'0 0.0
2018-Feb-16 06:55N 34°37' E 135°25'0 0.0
2018-Feb-16 06:28N 34°37' E 135°25'0 0.0
2018-Feb-16 05:59N 34°37' E 135°25'0 0.0
2018-Feb-16 05:29N 34°37' E 135°25'0 0.0
2018-Feb-16 04:53N 34°37' E 135°25'0 0.0
2018-Feb-16 04:29N 34°37' E 135°25'0 0.0
2018-Feb-16 03:59N 34°37' E 135°25'0 0.0
2018-Feb-16 03:29N 34°37' E 135°25'0 0.0
2018-Feb-16 02:59N 34°37' E 135°25'0 0.0
2018-Feb-16 02:29N 34°37' E 135°25'0 0.0
2018-Feb-16 01:59N 34°37' E 135°25'0 0.0
2018-Feb-16 01:29N 34°37' E 135°25'0 0.0
2018-Feb-16 00:59N 34°37' E 135°25'0 0.0
2018-Feb-16 00:30N 34°37' E 135°25'4 7.4
2018-Feb-16 00:00N 34°36' E 135°20'713.8
2018-Feb-15 23:30N 34°31' E 135°14'714.9
2018-Feb-15 23:01N 34°26' E 135°08'918.5
2018-Feb-15 22:31N 34°19' E 135°01'918.1
2018-Feb-15 22:01N 34°10' E 135°00'918.1
2018-Feb-15 21:31N 34°01' E 135°01'917.9
2018-Feb-15 21:00N 33°52' E 135°00'918.1
2018-Feb-15 20:30N 33°44' E 135°06'1218.1
2018-Feb-15 19:49N 33°35' E 135°17'5616.3
2018-Feb-15 16:22N 33°44' E 136°23'8718.0
2018-Feb-15 11:32N 34°21' E 137°58'417.8
2018-Feb-15 11:17N 34°22' E 138°04'1117.8
2018-Feb-15 10:41N 34°24' E 138°16'517.3
2018-Feb-15 10:24N 34°26' E 138°22'717.4
2018-Feb-15 10:00N 34°28' E 138°30'917.2
2018-Feb-15 09:30N 34°30' E 138°40'816.9
2018-Feb-15 09:00N 34°32' E 138°50'817.0
2018-Feb-15 08:30N 34°34' E 139°00'916.9
2018-Feb-15 07:58N 34°41' E 139°07'917.4
2018-Feb-15 07:29N 34°48' E 139°14'816.6
2018-Feb-15 07:00N 34°53' E 139°20'817.1
2018-Feb-15 06:30N 34°59' E 139°28'917.9
2018-Feb-15 06:01N 35°04' E 139°37'918.3
2018-Feb-15 05:31N 35°10' E 139°45'612.5
2018-Feb-15 05:00N 35°17' E 139°45'713.5
2018-Feb-15 04:30N 35°23' E 139°42'918.6
2018-Feb-15 04:01N 35°29' E 139°51'713.9
2018-Feb-15 03:31N 35°35' E 139°47'3 4.9
2018-Feb-15 02:58N 35°38' E 139°46'0 0.0
2018-Feb-15 02:30N 35°38' E 139°46'0 0.0
2018-Feb-15 01:55N 35°38' E 139°46'0 0.0
2018-Feb-15 01:25N 35°38' E 139°46'0 0.0
2018-Feb-15 00:55N 35°38' E 139°46'0 0.0
2018-Feb-15 00:25N 35°38' E 139°46'0 0.0
2018-Feb-14 23:43N 35°38' E 139°46'0 0.0
2018-Feb-14 22:46N 35°38' E 139°46'0 0.0
2018-Feb-14 22:25N 35°38' E 139°46'0 0.0
2018-Feb-14 21:44N 35°38' E 139°46'0 0.5
2018-Feb-14 21:30N 35°38' E 139°46'510.5
2018-Feb-14 21:00N 35°34' E 139°50'714.0
2018-Feb-14 20:30N 35°27' E 139°49'713.7
2018-Feb-14 20:00N 35°21' E 139°45'612.0
2018-Feb-14 19:31N 35°15' E 139°47'713.9
2018-Feb-14 19:00N 35°08' E 139°47'713.7
2018-Feb-14 18:31N 35°02' E 139°44'814.9
2018-Feb-14 18:00N 34°54' E 139°45'1416.1
2018-Feb-14 17:07N 34°54' E 140°03'418.2
2018-Feb-14 16:53N 34°56' E 140°08'1418.1
2018-Feb-14 16:08N 35°03' E 140°22'  
2018-Feb-11 19:36N 41°53' E 141°33'416.5
2018-Feb-11 19:21N 41°49' E 141°33'716.3
2018-Feb-11 18:54N 41°42' E 141°33'716.5
2018-Feb-11 18:30N 41°35' E 141°33'816.9
2018-Feb-11 18:00N 41°27' E 141°32'1017.8
2018-Feb-11 17:27N 41°17' E 141°32'917.3
2018-Feb-11 16:56N 41°08' E 141°31'817.3
2018-Feb-11 16:30N 41°01' E 141°31'36314.3
2018-Feb-10 15:06N 35°01' E 140°25'820.1
2018-Feb-10 14:41N 34°57' E 140°16'420.3
2018-Feb-10 14:29N 34°56' E 140°11'1020.2
2018-Feb-10 13:59N 34°53' E 139°60'1019.0
2018-Feb-10 13:27N 34°53' E 139°48'817.7
2018-Feb-10 13:00N 34°60' E 139°43'919.0
2018-Feb-10 12:30N 35°09' E 139°45'713.6
2018-Feb-10 12:00N 35°15' E 139°46'612.8
2018-Feb-10 11:31N 35°21' E 139°42'917.3
2018-Feb-10 11:01N 35°28' E 139°49'713.1
2018-Feb-10 10:31N 35°34' E 139°48'4 8.4
2018-Feb-10 10:00N 35°38' E 139°46'0 0.0
2018-Feb-10 04:48N 35°38' E 139°46'0 0.6
2018-Feb-10 04:28N 35°38' E 139°46'511.3
2018-Feb-10 04:00N 35°34' E 139°50'714.2
2018-Feb-10 03:30N 35°27' E 139°49'713.6
2018-Feb-10 03:00N 35°21' E 139°45'612.2
2018-Feb-10 02:30N 35°15' E 139°47'713.8
2018-Feb-10 02:00N 35°08' E 139°47'817.1
2018-Feb-10 01:31N 35°02' E 139°40'1018.5
2018-Feb-10 00:58N 34°55' E 139°30'919.6
2018-Feb-10 00:30N 34°50' E 139°21'1019.3
2018-Feb-09 23:59N 34°43' E 139°13'1019.8
2018-Feb-09 23:31N 34°35' E 139°06'1020.0
2018-Feb-09 23:01N 34°30' E 138°56'519.8
2018-Feb-09 22:46N 34°29' E 138°50'19218.7
2018-Feb-09 12:31N 33°48' E 135°04'2020.2
2018-Feb-09 11:30N 34°07' E 134°58'1121.6
2018-Feb-09 11:01N 34°18' E 134°58'2120.6
2018-Feb-09 10:01N 34°33' E 135°16'8 5.5
2018-Feb-09 08:30N 34°37' E 135°25'0 0.0
2018-Feb-09 00:30N 34°37' E 135°25'3212.9
2018-Feb-08 22:00N 34°13' E 134°59'918.2
2018-Feb-08 21:30N 34°03' E 134°59'918.0
2018-Feb-08 21:00N 33°54' E 134°59'  

Dump ship's entire track history